createdAt,value
2019-05-30T00:05:04.785Z,5.35
2019-05-30T00:10:26.564Z,5.78
2019-05-30T00:15:48.795Z,5.90
2019-05-30T00:21:10.512Z,7.08
2019-05-30T00:26:32.463Z,5.92
2019-05-30T00:31:55.480Z,6.67
2019-05-30T00:37:17.092Z,7.87
2019-05-30T00:42:39.134Z,9.78
2019-05-30T00:48:00.452Z,10.60
2019-05-30T00:53:21.969Z,10.00
2019-05-30T00:58:43.692Z,10.23
2019-05-30T01:04:05.281Z,9.20
2019-05-30T01:09:27.139Z,9.30
2019-05-30T01:14:48.785Z,9.13
2019-05-30T01:20:10.710Z,7.45
2019-05-30T01:25:32.371Z,7.28
2019-05-30T01:31:01.195Z,6.10
2019-05-30T01:36:18.309Z,5.30
2019-05-30T01:41:39.651Z,6.37
2019-05-30T01:47:02.003Z,5.80
2019-05-30T01:52:23.711Z,6.17
2019-05-30T01:57:45.412Z,6.70
2019-05-30T02:03:07.434Z,6.70
2019-05-30T02:08:29.848Z,6.58
2019-05-30T02:13:51.430Z,7.12
2019-05-30T02:19:13.204Z,7.92
2019-05-30T02:24:35.249Z,6.97
2019-05-30T02:29:56.933Z,7.37
2019-05-30T02:35:18.990Z,7.97
2019-05-30T02:40:41.111Z,8.03
2019-05-30T02:46:03.532Z,7.70
2019-05-30T02:51:26.034Z,10.10
2019-05-30T02:56:47.750Z,8.95
2019-05-30T03:02:14.644Z,7.83
2019-05-30T03:07:32.924Z,7.97
2019-05-30T03:12:54.642Z,7.75
2019-05-30T03:18:16.279Z,8.30
2019-05-30T03:23:38.165Z,8.00
2019-05-30T03:28:59.889Z,7.80
2019-05-30T03:34:27.786Z,7.95
2019-05-30T03:39:45.081Z,7.53
2019-05-30T03:45:10.694Z,7.50
2019-05-30T03:50:33.331Z,7.83
2019-05-30T03:56:01.570Z,12.78
2019-05-30T04:01:28.585Z,8.85
2019-05-30T04:06:54.586Z,5.20
2019-05-30T04:12:57.098Z,5.55
2019-05-30T04:18:19.541Z,7.25
2019-05-30T04:23:41.524Z,7.25
2019-05-30T04:29:03.067Z,7.37
2019-05-30T04:34:24.761Z,7.60
2019-05-30T04:39:46.998Z,7.05
2019-05-30T04:45:10.100Z,8.03
2019-05-30T04:50:33.479Z,7.67
2019-05-30T04:55:58.729Z,7.66
2019-05-30T05:01:22.102Z,8.70
2019-05-30T05:06:43.966Z,8.18
2019-05-30T05:12:05.624Z,8.73
2019-05-30T05:17:27.395Z,8.98
2019-05-30T05:22:48.984Z,9.33
2019-05-30T05:28:10.590Z,9.23
2019-05-30T05:33:32.489Z,8.38
2019-05-30T05:38:54.152Z,8.38
2019-05-30T05:44:16.183Z,9.13
2019-05-30T05:49:38.356Z,9.53
2019-05-30T05:55:00.096Z,9.00
2019-05-30T06:00:23.313Z,8.40
2019-05-30T06:05:52.979Z,8.13
2019-05-30T06:11:11.368Z,8.43
2019-05-30T06:16:32.963Z,10.25
2019-05-30T06:21:54.779Z,11.00
2019-05-30T06:27:17.754Z,10.25
2019-05-30T06:32:39.681Z,9.53
2019-05-30T06:38:01.218Z,7.10
2019-05-30T06:43:24.368Z,6.87
2019-05-30T06:48:46.557Z,9.48
2019-05-30T06:54:08.832Z,7.80
2019-05-30T06:59:30.448Z,7.05
2019-05-30T07:04:53.013Z,7.17
2019-05-30T07:10:15.165Z,7.60
2019-05-30T07:15:36.813Z,6.65
2019-05-30T07:20:58.247Z,6.60
2019-05-30T07:26:20.007Z,6.60
2019-05-30T07:31:41.313Z,6.25
2019-05-30T07:37:03.473Z,6.55
2019-05-30T07:42:24.922Z,6.58
2019-05-30T07:47:46.466Z,6.55
2019-05-30T07:53:08.312Z,5.80
2019-05-30T07:58:29.646Z,6.92
2019-05-30T08:03:51.516Z,6.95
2019-05-30T08:09:12.977Z,6.45
2019-05-30T08:14:35.374Z,6.55
2019-05-30T08:19:56.698Z,6.42
2019-05-30T08:25:18.446Z,6.47
2019-05-30T08:30:40.017Z,6.58
2019-05-30T08:36:05.553Z,5.90
2019-05-30T08:41:25.824Z,6.03
2019-05-30T08:46:47.906Z,6.25
2019-05-30T08:52:09.860Z,5.47
2019-05-30T08:57:32.336Z,4.83
2019-05-30T09:02:54.475Z,4.90
2019-05-30T09:08:16.256Z,4.72
2019-05-30T09:13:38.899Z,4.78
2019-05-30T09:19:00.947Z,4.25
2019-05-30T09:24:22.472Z,5.10
2019-05-30T09:29:44.715Z,4.28
2019-05-30T09:35:07.100Z,4.28
2019-05-30T09:40:30.277Z,4.33
2019-05-30T09:45:52.009Z,4.83
2019-05-30T09:51:13.953Z,4.90
2019-05-30T09:56:35.361Z,4.45
2019-05-30T10:01:57.030Z,4.30
2019-05-30T10:07:18.894Z,4.80
2019-05-30T10:12:40.658Z,4.40
2019-05-30T10:18:02.191Z,4.67
2019-05-30T10:23:24.008Z,4.17
2019-05-30T10:28:46.424Z,4.08
2019-05-30T10:34:09.532Z,4.28
2019-05-30T10:39:31.307Z,4.47
2019-05-30T10:44:54.565Z,3.92
2019-05-30T10:50:17.108Z,4.35
2019-05-30T10:55:38.979Z,4.60
2019-05-30T11:01:00.703Z,4.78
2019-05-30T11:07:04.850Z,5.05
2019-05-30T11:12:11.685Z,5.05
2019-05-30T11:17:33.411Z,5.47
2019-05-30T11:22:56.372Z,5.05
2019-05-30T11:28:18.435Z,5.55
2019-05-30T11:33:40.371Z,5.17
2019-05-30T11:39:02.051Z,5.20
2019-05-30T11:44:23.891Z,4.92
2019-05-30T11:49:45.430Z,5.33
2019-05-30T11:55:07.352Z,5.50
2019-05-30T12:00:28.990Z,5.17
2019-05-30T12:05:51.020Z,4.85
2019-05-30T12:11:12.969Z,5.45
2019-05-30T12:16:34.723Z,6.67
2019-05-30T12:21:57.671Z,5.78
2019-05-30T12:27:19.191Z,5.20
2019-05-30T12:32:40.597Z,5.47
2019-05-30T12:38:05.958Z,5.22
2019-05-30T12:43:25.972Z,5.33
2019-05-30T12:48:49.033Z,5.55
2019-05-30T12:54:10.755Z,5.60
2019-05-30T12:59:32.294Z,6.05
2019-05-30T13:04:54.729Z,5.80
2019-05-30T13:10:18.189Z,6.05
2019-05-30T13:15:39.790Z,6.67
2019-05-30T13:21:02.167Z,5.72
2019-05-30T13:26:24.100Z,6.45
2019-05-30T13:31:45.853Z,6.20
2019-05-30T13:37:07.359Z,5.97
2019-05-30T13:42:28.844Z,5.90
2019-05-30T13:47:50.668Z,6.42
2019-05-30T13:53:12.223Z,5.10
2019-05-30T13:58:33.808Z,5.78
2019-05-30T14:03:55.517Z,5.70
2019-05-30T14:09:17.137Z,4.87
2019-05-30T14:14:39.007Z,5.20
2019-05-30T14:20:01.106Z,4.33
2019-05-30T14:25:22.882Z,4.70
2019-05-30T14:30:44.540Z,4.90
2019-05-30T14:36:10.209Z,4.97
2019-05-30T14:41:30.779Z,4.45
2019-05-30T14:46:52.523Z,4.83
2019-05-30T14:52:14.270Z,4.70
2019-05-30T14:57:41.437Z,4.15
2019-05-30T15:03:03.265Z,4.25
2019-05-30T15:08:25.112Z,4.03
2019-05-30T15:13:46.427Z,4.30
2019-05-30T15:19:08.127Z,3.90
2019-05-30T15:24:30.067Z,4.08
2019-05-30T15:29:51.707Z,4.08
2019-05-30T15:35:15.202Z,3.77
2019-05-30T15:40:37.029Z,3.83
2019-05-30T15:45:58.837Z,4.20
2019-05-30T15:51:21.462Z,4.00
2019-05-30T15:56:43.530Z,3.95
2019-05-30T16:02:05.434Z,4.60
2019-05-30T16:07:27.234Z,3.90
2019-05-30T16:12:48.959Z,3.52
2019-05-30T16:18:11.620Z,3.95
2019-05-30T16:23:33.478Z,4.10
2019-05-30T16:28:55.476Z,4.03
2019-05-30T16:34:18.063Z,3.90
2019-05-30T16:39:42.792Z,4.23
2019-05-30T16:45:06.119Z,3.92
2019-05-30T16:50:27.619Z,4.10
2019-05-30T16:55:49.648Z,3.83
2019-05-30T17:01:11.269Z,4.35
2019-05-30T17:06:32.589Z,4.28
2019-05-30T17:11:54.588Z,4.10
2019-05-30T17:17:16.347Z,4.17
2019-05-30T17:22:38.702Z,4.70
2019-05-30T17:28:00.034Z,3.85
2019-05-30T17:33:23.423Z,4.35
2019-05-30T17:38:46.365Z,4.53
2019-05-30T17:44:08.033Z,4.55
2019-05-30T17:49:30.032Z,4.15
2019-05-30T17:54:51.891Z,4.05
2019-05-30T18:00:14.763Z,4.40
2019-05-30T18:05:37.329Z,4.70
2019-05-30T18:10:59.303Z,4.78
2019-05-30T18:16:21.118Z,4.60
2019-05-30T18:21:42.960Z,4.60
2019-05-30T18:27:04.755Z,4.42
2019-05-30T18:32:26.394Z,5.00
2019-05-30T18:37:48.237Z,6.45
2019-05-30T18:43:10.174Z,5.90
2019-05-30T18:48:31.921Z,5.17
2019-05-30T18:53:53.631Z,5.87
2019-05-30T18:59:15.495Z,6.40
2019-05-30T19:04:37.123Z,5.17
2019-05-30T19:09:58.953Z,5.62
2019-05-30T19:15:21.073Z,6.70
2019-05-30T19:20:42.806Z,5.78
2019-05-30T19:26:04.758Z,5.90
2019-05-30T19:31:26.448Z,8.95
2019-05-30T19:36:48.140Z,8.40
2019-05-30T19:42:10.194Z,5.15
2019-05-30T19:47:32.375Z,5.12
2019-05-30T19:52:53.853Z,5.20
2019-05-30T19:58:15.518Z,5.92
2019-05-30T20:03:43.586Z,9.03
2019-05-30T20:09:00.938Z,5.30
2019-05-30T20:14:22.324Z,5.80
2019-05-30T20:19:44.058Z,5.67
2019-05-30T20:25:05.987Z,5.62
2019-05-30T20:30:27.808Z,4.87
2019-05-30T20:35:49.366Z,5.40
2019-05-30T20:41:11.114Z,5.70
2019-05-30T20:46:32.742Z,5.25
2019-05-30T20:51:54.387Z,5.22
2019-05-30T20:57:15.981Z,5.62
2019-05-30T21:02:38.756Z,5.42
2019-05-30T21:08:05.670Z,5.90
2019-05-30T21:13:29.146Z,6.08
2019-05-30T21:18:52.253Z,5.85
2019-05-30T21:24:13.960Z,5.85
2019-05-30T21:29:36.677Z,5.95
2019-05-30T21:34:58.549Z,6.35
2019-05-30T21:40:20.089Z,6.20
2019-05-30T21:45:42.516Z,5.70
2019-05-30T21:51:03.982Z,5.87
2019-05-30T21:56:26.888Z,6.53
2019-05-30T22:01:54.832Z,6.10
2019-05-30T22:07:12.473Z,6.20
2019-05-30T22:12:34.405Z,6.20
2019-05-30T22:17:56.130Z,6.22
2019-05-30T22:23:17.783Z,5.92
2019-05-30T22:28:39.415Z,5.92
2019-05-30T22:34:01.280Z,6.03
2019-05-30T22:39:22.586Z,6.45
2019-05-30T22:44:44.465Z,5.85
2019-05-30T22:50:06.268Z,5.75
2019-05-30T22:55:28.268Z,5.80
2019-05-30T23:00:50.040Z,5.55
2019-05-30T23:06:11.957Z,5.33
2019-05-30T23:11:33.552Z,4.85
2019-05-30T23:16:56.405Z,3.65
2019-05-30T23:22:17.899Z,3.37
2019-05-30T23:27:39.500Z,3.30
2019-05-30T23:33:01.512Z,3.05
2019-05-30T23:38:23.127Z,2.20
2019-05-30T23:43:56.611Z,2.10
2019-05-30T23:49:08.620Z,1.77
2019-05-30T23:54:29.971Z,1.50
2019-05-30T23:59:52.729Z,1.60
